Stanley, NM (87056)

06:17 MST le 28 novembre 2014 (GMT -0700)
Rural Stanley | Change Station
CLOSE
Current Station
Stations météorologiques personnelles
Location: New Mexico, NM
Altitude: 6414 ft
Stations météo à proximité

Alt. 6414 ft 35.13 °N, 106.11 °W | Updated 59 seconds ago

Ciel dégagé
Ciel dégagé
34.9 ° F
Paraît 35 ° F
N
2.9
Vent Variable Vent de NO
Gusts 4.0 mph

Aujourd'hui
Haut(e) -- | Bas -- ° F
--% Risque de précip.
Hier
Haut(e) -- | Bas -- ° F
Precip. -- pouce
6:51 AM 4:52 PM
Lune montante, 40% visible
Pression 30.29 pouce
Visibilité 10.0 Miles terrestres
Nuages Ciel dégagé
Refroidissement éolien 35 ° F
Point de rosée 21 ° F
Humidité 57%
Précipitations 0.00 pouce
Profondeur de la couche neigeuse Non disponible.
UV 0.0 sur 12
Pollen 2.50 sur 12
Qualité de l'air Non disponible.
Flu Activity Non disponible.
METAR K0E0 281255Z AUTO 05003KT 10SM CLR M09/M10 A3029 RMK AO2 T10861105

More Conditions Fewer Conditions

Pression 30.29 pouce
Visibilité 10.0 Miles terrestres
Nuages Ciel dégagé
Refroidissement éolien 35 ° F
Point de rosée 21 ° F
Humidité 57%
Précipitations 0.00 pouce
Profondeur de la couche neigeuse Non disponible.
UV 0.0 sur 12
Pollen 2.50 sur 12
Qualité de l'air Non disponible.
Flu Activity Non disponible.
METAR K0E0 281255Z AUTO 05003KT 10SM CLR M09/M10 A3029 RMK AO2 T10861105

More Conditions Fewer Conditions

10-Day Weather Forecast

Almanac

Astronomie

Nov. 28, 2014 Lever Coucher
Temps réel
Crépuscule civil
Crépuscule nautique
Crépuscule astronomique
Lune
Durée de lumière visible
Longueur du jour
Tomorrow will be .
, % of the Moon is Illuminated

Extrêmes aujourd'hui

State Highs State Lows

Community

WunderPhotos

Upload Photos

1,774,199 Photos téléchargées !

WunderBlogs® & News

Nearby

Qualité de l'air

  Qualité de l'air Indice de la qualité de l'air Polluant
Not available.

Épaisseur de neige

Station Depth Altitude

Activité sismique

Ville Distance Mag. Time & Date
Minimum magnitude displayed is 2.5.

Températures des eaux côtières

Lieu Température

Stations météo à proximité